sensor_id;sensor_type;location;lat;lon;timestamp;pressure;altitude;pressure_sealevel;temperature;humidity
55675;BME280;41562;44.330;23.802;2023-07-09T00:02:27;100456.66;;;20.79;96.83
55675;BME280;41562;44.330;23.802;2023-07-09T00:05:16;100455.28;;;20.73;97.17
55675;BME280;41562;44.330;23.802;2023-07-09T00:07:47;100455.53;;;20.80;96.74
55675;BME280;41562;44.330;23.802;2023-07-09T00:10:20;100462.88;;;20.38;99.34
55675;BME280;41562;44.330;23.802;2023-07-09T00:12:51;100455.06;;;20.36;100.00
55675;BME280;41562;44.330;23.802;2023-07-09T00:15:26;100455.16;;;20.19;100.00
55675;BME280;41562;44.330;23.802;2023-07-09T00:17:54;100451.53;;;20.15;100.00
55675;BME280;41562;44.330;23.802;2023-07-09T00:20:28;100450.69;;;20.23;100.00
55675;BME280;41562;44.330;23.802;2023-07-09T00:22:59;100458.06;;;20.14;100.00
55675;BME280;41562;44.330;23.802;2023-07-09T00:25:31;100451.59;;;20.27;100.00
55675;BME280;41562;44.330;23.802;2023-07-09T00:28:02;100450.78;;;20.35;100.00
55675;BME280;41562;44.330;23.802;2023-07-09T00:30:34;100450.84;;;19.97;100.00
55675;BME280;41562;44.330;23.802;2023-07-09T00:33:01;100458.34;;;19.92;100.00
55675;BME280;41562;44.330;23.802;2023-07-09T00:35:29;100460.44;;;19.95;100.00
55675;BME280;41562;44.330;23.802;2023-07-09T00:37:57;100455.47;;;19.97;100.00
55675;BME280;41562;44.330;23.802;2023-07-09T00:40:25;100455.59;;;20.00;100.00
55675;BME280;41562;44.330;23.802;2023-07-09T00:43:01;100459.50;;;19.91;100.00
55675;BME280;41562;44.330;23.802;2023-07-09T00:45:30;100454.91;;;19.83;100.00
55675;BME280;41562;44.330;23.802;2023-07-09T00:48:02;100458.13;;;19.76;100.00
55675;BME280;41562;44.330;23.802;2023-07-09T00:55:53;100462.66;;;19.63;100.00
55675;BME280;41562;44.330;23.802;2023-07-09T00:58:26;100460.75;;;19.64;100.00
55675;BME280;41562;44.330;23.802;2023-07-09T01:01:05;100466.19;;;19.55;100.00
55675;BME280;41562;44.330;23.802;2023-07-09T01:03:40;100470.00;;;19.54;100.00
55675;BME280;41562;44.330;23.802;2023-07-09T01:06:12;100466.84;;;19.44;100.00
55675;BME280;41562;44.330;23.802;2023-07-09T01:08:43;100469.88;;;19.51;100.00
55675;BME280;41562;44.330;23.802;2023-07-09T01:11:19;100472.28;;;19.52;100.00
55675;BME280;41562;44.330;23.802;2023-07-09T01:13:52;100471.66;;;19.38;100.00
55675;BME280;41562;44.330;23.802;2023-07-09T01:16:25;100466.34;;;19.42;100.00
55675;BME280;41562;44.330;23.802;2023-07-09T01:19:02;100466.84;;;19.44;100.00
55675;BME280;41562;44.330;23.802;2023-07-09T01:21:30;100463.69;;;19.33;100.00
55675;BME280;41562;44.330;23.802;2023-07-09T01:23:58;100465.56;;;19.41;100.00
55675;BME280;41562;44.330;23.802;2023-07-09T01:26:27;100470.38;;;19.53;100.00
55675;BME280;41562;44.330;23.802;2023-07-09T01:29:03;100475.78;;;19.44;100.00
55675;BME280;41562;44.330;23.802;2023-07-09T01:31:31;100473.75;;;19.24;100.00
55675;BME280;41562;44.330;23.802;2023-07-09T01:34:07;100475.72;;;19.15;100.00
55675;BME280;41562;44.330;23.802;2023-07-09T01:36:37;100472.34;;;19.18;100.00
55675;BME280;41562;44.330;23.802;2023-07-09T01:39:10;100479.03;;;19.12;100.00
55675;BME280;41562;44.330;23.802;2023-07-09T01:41:41;100483.34;;;19.21;100.00
55675;BME280;41562;44.330;23.802;2023-07-09T01:44:10;100486.69;;;19.10;100.00
55675;BME280;41562;44.330;23.802;2023-07-09T01:46:41;100489.13;;;19.03;100.00
55675;BME280;41562;44.330;23.802;2023-07-09T01:49:09;100489.41;;;19.10;100.00
55675;BME280;41562;44.330;23.802;2023-07-09T01:51:36;100496.59;;;19.06;100.00
55675;BME280;41562;44.330;23.802;2023-07-09T01:54:06;100489.59;;;18.96;100.00
55675;BME280;41562;44.330;23.802;2023-07-09T01:56:36;100500.44;;;18.87;100.00
55675;BME280;41562;44.330;23.802;2023-07-09T01:59:04;100495.66;;;18.84;100.00
55675;BME280;41562;44.330;23.802;2023-07-09T02:01:41;100495.66;;;18.84;100.00
55675;BME280;41562;44.330;23.802;2023-07-09T02:04:20;100504.25;;;18.86;100.00
55675;BME280;41562;44.330;23.802;2023-07-09T02:06:47;100503.16;;;18.79;100.00
55675;BME280;41562;44.330;23.802;2023-07-09T02:09:19;100497.59;;;18.84;100.00
55675;BME280;41562;44.330;23.802;2023-07-09T02:11:55;100503.94;;;18.88;100.00
55675;BME280;41562;44.330;23.802;2023-07-09T02:14:27;100506.00;;;18.91;100.00
55675;BME280;41562;44.330;23.802;2023-07-09T02:16:58;100505.56;;;18.89;100.00
55675;BME280;41562;44.330;23.802;2023-07-09T02:19:28;100497.41;;;18.63;100.00
55675;BME280;41562;44.330;23.802;2023-07-09T02:22:00;100501.88;;;18.76;100.00
55675;BME280;41562;44.330;23.802;2023-07-09T02:24:27;100504.41;;;18.73;100.00
55675;BME280;41562;44.330;23.802;2023-07-09T02:27:00;100499.78;;;18.73;100.00
55675;BME280;41562;44.330;23.802;2023-07-09T02:29:28;100499.34;;;18.71;100.00
55675;BME280;41562;44.330;23.802;2023-07-09T02:32:00;100506.81;;;18.92;100.00
55675;BME280;41562;44.330;23.802;2023-07-09T02:34:29;100509.38;;;18.97;100.00
55675;BME280;41562;44.330;23.802;2023-07-09T02:36:58;100506.50;;;18.93;100.00
55675;BME280;41562;44.330;23.802;2023-07-09T02:39:28;100512.72;;;18.94;100.00
55675;BME280;41562;44.330;23.802;2023-07-09T02:42:03;100512.41;;;18.95;100.00
55675;BME280;41562;44.330;23.802;2023-07-09T02:44:30;100511.13;;;19.01;100.00
55675;BME280;41562;44.330;23.802;2023-07-09T02:47:00;100514.28;;;19.03;100.00
55675;BME280;41562;44.330;23.802;2023-07-09T02:49:30;100514.00;;;18.87;100.00
55675;BME280;41562;44.330;23.802;2023-07-09T02:51:57;100516.56;;;18.84;100.00
55675;BME280;41562;44.330;23.802;2023-07-09T02:54:25;100510.19;;;18.71;100.00
55675;BME280;41562;44.330;23.802;2023-07-09T02:56:59;100505.22;;;18.73;100.00
55675;BME280;41562;44.330;23.802;2023-07-09T02:59:26;100511.06;;;18.49;100.00
55675;BME280;41562;44.330;23.802;2023-07-09T03:02:00;100511.28;;;18.62;100.00
55675;BME280;41562;44.330;23.802;2023-07-09T03:04:31;100505.53;;;18.80;100.00
55675;BME280;41562;44.330;23.802;2023-07-09T03:07:04;100505.22;;;18.91;100.00
55675;BME280;41562;44.330;23.802;2023-07-09T03:09:32;100508.41;;;18.93;100.00
55675;BME280;41562;44.330;23.802;2023-07-09T03:12:03;100514.31;;;18.95;100.00
55675;BME280;41562;44.330;23.802;2023-07-09T03:14:36;100513.81;;;18.93;100.00
55675;BME280;41562;44.330;23.802;2023-07-09T03:17:06;100528.31;;;20.95;100.00
55675;BME280;41562;44.330;23.802;2023-07-09T03:19:37;100531.03;;;21.49;100.00
55675;BME280;41562;44.330;23.802;2023-07-09T03:22:04;100530.81;;;21.66;99.04
55675;BME280;41562;44.330;23.802;2023-07-09T03:24:40;100530.59;;;21.71;98.24
55675;BME280;41562;44.330;23.802;2023-07-09T03:27:08;100531.06;;;21.73;97.32
55675;BME280;41562;44.330;23.802;2023-07-09T03:29:42;100536.47;;;22.06;95.06
55675;BME280;41562;44.330;23.802;2023-07-09T03:32:13;100528.06;;;22.11;94.38
55675;BME280;41562;44.330;23.802;2023-07-09T03:34:49;100527.94;;;21.95;95.41
55675;BME280;41562;44.330;23.802;2023-07-09T03:37:20;100530.78;;;21.99;94.81
55675;BME280;41562;44.330;23.802;2023-07-09T03:39:51;100534.69;;;21.89;95.76
55675;BME280;41562;44.330;23.802;2023-07-09T03:42:19;100540.09;;;21.98;95.11
55675;BME280;41562;44.330;23.802;2023-07-09T03:44:49;100536.63;;;21.77;95.57
55675;BME280;41562;44.330;23.802;2023-07-09T03:47:24;100530.31;;;21.97;95.29
55675;BME280;41562;44.330;23.802;2023-07-09T03:49:51;100539.28;;;22.10;94.11
55675;BME280;41562;44.330;23.802;2023-07-09T03:52:27;100543.13;;;22.09;94.33
55675;BME280;41562;44.330;23.802;2023-07-09T03:55:03;100540.19;;;22.01;94.69
55675;BME280;41562;44.330;23.802;2023-07-09T03:57:39;100554.47;;;21.86;94.85
55675;BME280;41562;44.330;23.802;2023-07-09T04:00:09;100561.41;;;21.51;95.76
55675;BME280;41562;44.330;23.802;2023-07-09T04:02:41;100562.09;;;21.48;96.35
55675;BME280;41562;44.330;23.802;2023-07-09T04:05:10;100563.22;;;21.47;93.94
55675;BME280;41562;44.330;23.802;2023-07-09T04:07:39;100566.75;;;21.26;95.40
55675;BME280;41562;44.330;23.802;2023-07-09T04:10:16;100567.06;;;21.46;94.73
55675;BME280;41562;44.330;23.802;2023-07-09T04:12:47;100566.41;;;21.49;95.90
55675;BME280;41562;44.330;23.802;2023-07-09T04:15:18;100554.19;;;21.67;94.96
55675;BME280;41562;44.330;23.802;2023-07-09T04:17:46;100558.09;;;21.45;97.41
55675;BME280;41562;44.330;23.802;2023-07-09T04:20:17;100563.41;;;21.75;94.45
55675;BME280;41562;44.330;23.802;2023-07-09T04:22:55;100570.53;;;21.67;95.37
55675;BME280;41562;44.330;23.802;2023-07-09T04:25:28;100564.13;;;22.08;94.00
55675;BME280;41562;44.330;23.802;2023-07-09T04:27:56;100564.66;;;21.89;93.92
55675;BME280;41562;44.330;23.802;2023-07-09T04:30:26;100562.81;;;21.69;92.76
55675;BME280;41562;44.330;23.802;2023-07-09T04:32:54;100568.56;;;21.55;93.89
55675;BME280;41562;44.330;23.802;2023-07-09T04:35:22;100565.31;;;21.62;94.34
55675;BME280;41562;44.330;23.802;2023-07-09T04:37:53;100567.06;;;21.46;98.33
55675;BME280;41562;44.330;23.802;2023-07-09T04:40:23;100573.06;;;21.84;97.48
55675;BME280;41562;44.330;23.802;2023-07-09T04:42:59;100571.03;;;21.48;96.29
55675;BME280;41562;44.330;23.802;2023-07-09T04:45:26;100579.47;;;21.55;95.69
55675;BME280;41562;44.330;23.802;2023-07-09T04:47:57;100585.00;;;21.59;95.18
55675;BME280;41562;44.330;23.802;2023-07-09T04:50:25;100573.25;;;21.67;94.52
55675;BME280;41562;44.330;23.802;2023-07-09T04:52:52;100577.97;;;21.58;94.05
55675;BME280;41562;44.330;23.802;2023-07-09T04:55:25;100574.84;;;21.68;94.08
55675;BME280;41562;44.330;23.802;2023-07-09T04:57:55;100572.31;;;21.63;94.33
55675;BME280;41562;44.330;23.802;2023-07-09T05:00:25;100581.66;;;21.74;93.98
55675;BME280;41562;44.330;23.802;2023-07-09T05:03:04;100575.03;;;21.63;95.10
55675;BME280;41562;44.330;23.802;2023-07-09T05:05:53;100577.97;;;21.58;95.12
55675;BME280;41562;44.330;23.802;2023-07-09T05:08:34;100579.28;;;21.40;96.21
55675;BME280;41562;44.330;23.802;2023-07-09T05:11:11;100581.38;;;21.55;95.39
55675;BME280;41562;44.330;23.802;2023-07-09T05:13:43;100577.47;;;21.44;95.02
55675;BME280;41562;44.330;23.802;2023-07-09T05:16:18;100581.69;;;21.41;94.89
55675;BME280;41562;44.330;23.802;2023-07-09T05:18:49;100576.13;;;21.50;95.46
55675;BME280;41562;44.330;23.802;2023-07-09T05:21:26;100567.78;;;21.55;95.32
55675;BME280;41562;44.330;23.802;2023-07-09T05:24:03;100580.59;;;21.54;96.41
55675;BME280;41562;44.330;23.802;2023-07-09T05:26:34;100571.91;;;21.85;94.85
55675;BME280;41562;44.330;23.802;2023-07-09T05:29:06;100571.78;;;21.82;94.08
55675;BME280;41562;44.330;23.802;2023-07-09T05:31:38;100579.00;;;22.35;91.53
55675;BME280;41562;44.330;23.802;2023-07-09T05:34:06;100579.47;;;22.25;92.24
55675;BME280;41562;44.330;23.802;2023-07-09T05:36:39;100571.63;;;22.11;92.87
55675;BME280;41562;44.330;23.802;2023-07-09T05:39:07;100572.44;;;21.99;93.47
55675;BME280;41562;44.330;23.802;2023-07-09T05:41:40;100580.47;;;22.08;93.44
55675;BME280;41562;44.330;23.802;2023-07-09T05:44:11;100573.00;;;22.41;91.54
55675;BME280;41562;44.330;23.802;2023-07-09T05:46:43;100575.16;;;22.36;92.03
55675;BME280;41562;44.330;23.802;2023-07-09T05:49:14;100575.03;;;22.57;91.03
55675;BME280;41562;44.330;23.802;2023-07-09T05:51:48;100579.56;;;22.53;90.95
55675;BME280;41562;44.330;23.802;2023-07-09T05:54:24;100575.03;;;22.57;90.67
55675;BME280;41562;44.330;23.802;2023-07-09T05:56:52;100577.97;;;22.52;90.74
55675;BME280;41562;44.330;23.802;2023-07-09T05:59:26;100576.97;;;22.44;91.28
55675;BME280;41562;44.330;23.802;2023-07-09T06:02:00;100574.91;;;22.53;91.36
55675;BME280;41562;44.330;23.802;2023-07-09T06:04:31;100566.75;;;22.41;92.53
55675;BME280;41562;44.330;23.802;2023-07-09T06:07:01;100561.84;;;22.46;91.48
55675;BME280;41562;44.330;23.802;2023-07-09T06:09:36;100563.31;;;22.68;90.27
55675;BME280;41562;44.330;23.802;2023-07-09T06:12:21;100566.06;;;22.56;91.25
55675;BME280;41562;44.330;23.802;2023-07-09T06:14:52;100567.38;;;22.87;89.20
55675;BME280;41562;44.330;23.802;2023-07-09T06:17:23;100559.91;;;23.11;89.15
55675;BME280;41562;44.330;23.802;2023-07-09T06:19:51;100558.84;;;23.44;88.88
55675;BME280;41562;44.330;23.802;2023-07-09T06:22:29;100567.63;;;23.49;86.84
55675;BME280;41562;44.330;23.802;2023-07-09T06:25:03;100570.66;;;23.76;89.62
55675;BME280;41562;44.330;23.802;2023-07-09T06:27:34;100564.84;;;23.93;88.31
55675;BME280;41562;44.330;23.802;2023-07-09T06:30:05;100559.63;;;23.72;87.55
55675;BME280;41562;44.330;23.802;2023-07-09T06:32:58;100557.34;;;23.74;88.45
55675;BME280;41562;44.330;23.802;2023-07-09T06:35:28;100551.25;;;23.81;87.23
55675;BME280;41562;44.330;23.802;2023-07-09T06:38:01;100550.19;;;24.32;83.63
55675;BME280;41562;44.330;23.802;2023-07-09T06:40:35;100546.91;;;24.42;84.13
55675;BME280;41562;44.330;23.802;2023-07-09T06:43:09;100546.22;;;24.46;82.72
55675;BME280;41562;44.330;23.802;2023-07-09T06:45:39;100548.63;;;24.31;83.64
55675;BME280;41562;44.330;23.802;2023-07-09T06:48:13;100542.22;;;24.59;83.00
55675;BME280;41562;44.330;23.802;2023-07-09T06:50:45;100537.75;;;24.70;82.79
55675;BME280;41562;44.330;23.802;2023-07-09T06:53:18;100548.41;;;24.75;81.23
55675;BME280;41562;44.330;23.802;2023-07-09T06:55:55;100544.66;;;24.64;78.94
55675;BME280;41562;44.330;23.802;2023-07-09T06:58:33;100535.56;;;24.60;79.83
55675;BME280;41562;44.330;23.802;2023-07-09T07:01:04;100544.31;;;24.84;78.52
55675;BME280;41562;44.330;23.802;2023-07-09T07:03:36;100541.97;;;25.02;79.78
55675;BME280;41562;44.330;23.802;2023-07-09T07:06:15;100548.44;;;24.94;75.49
55675;BME280;41562;44.330;23.802;2023-07-09T07:08:46;100535.03;;;25.28;78.56
55675;BME280;41562;44.330;23.802;2023-07-09T07:11:16;100546.00;;;25.50;77.37
55675;BME280;41562;44.330;23.802;2023-07-09T07:13:50;100537.84;;;25.73;78.02
55675;BME280;41562;44.330;23.802;2023-07-09T07:16:21;100540.50;;;25.70;76.23
55675;BME280;41562;44.330;23.802;2023-07-09T07:18:51;100538.34;;;26.28;77.34
55675;BME280;41562;44.330;23.802;2023-07-09T07:21:22;100533.69;;;26.32;75.94
55675;BME280;41562;44.330;23.802;2023-07-09T07:23:53;100528.28;;;26.35;74.64
55675;BME280;41562;44.330;23.802;2023-07-09T07:26:20;100537.16;;;26.02;74.13
55675;BME280;41562;44.330;23.802;2023-07-09T07:28:50;100536.19;;;26.18;74.64
55675;BME280;41562;44.330;23.802;2023-07-09T07:31:21;100533.81;;;26.39;73.46
55675;BME280;41562;44.330;23.802;2023-07-09T07:33:49;100529.56;;;26.75;75.62
55675;BME280;41562;44.330;23.802;2023-07-09T07:36:21;100526.47;;;26.76;71.43
55675;BME280;41562;44.330;23.802;2023-07-09T07:38:57;100524.09;;;26.45;71.82
55675;BME280;41562;44.330;23.802;2023-07-09T07:41:31;100528.28;;;26.65;69.58
55675;BME280;41562;44.330;23.802;2023-07-09T07:43:59;100519.38;;;26.72;70.31
55675;BME280;41562;44.330;23.802;2023-07-09T07:46:35;100517.31;;;26.95;69.20
55675;BME280;41562;44.330;23.802;2023-07-09T07:49:06;100521.44;;;26.82;63.65
55675;BME280;41562;44.330;23.802;2023-07-09T07:51:34;100510.16;;;26.87;66.04
55675;BME280;41562;44.330;23.802;2023-07-09T07:54:06;100513.38;;;26.93;63.07
55675;BME280;41562;44.330;23.802;2023-07-09T07:56:40;100509.22;;;27.06;63.02
55675;BME280;41562;44.330;23.802;2023-07-09T07:59:11;100508.69;;;26.93;59.91
55675;BME280;41562;44.330;23.802;2023-07-09T08:01:42;100505.94;;;27.30;60.71
55675;BME280;41562;44.330;23.802;2023-07-09T08:04:09;100509.16;;;27.39;60.35
55675;BME280;41562;44.330;23.802;2023-07-09T08:06:37;100511.66;;;27.51;58.30
55675;BME280;41562;44.330;23.802;2023-07-09T08:09:08;100506.56;;;27.53;56.64
55675;BME280;41562;44.330;23.802;2023-07-09T08:11:36;100507.66;;;27.45;56.45
55675;BME280;41562;44.330;23.802;2023-07-09T08:14:03;100510.06;;;27.50;57.34
55675;BME280;41562;44.330;23.802;2023-07-09T08:16:34;100507.03;;;27.59;58.50
55675;BME280;41562;44.330;23.802;2023-07-09T08:19:02;100502.47;;;27.77;57.90
55675;BME280;41562;44.330;23.802;2023-07-09T08:21:33;100500.63;;;27.92;56.60
55675;BME280;41562;44.330;23.802;2023-07-09T08:24:01;100496.41;;;28.09;53.97
55675;BME280;41562;44.330;23.802;2023-07-09T08:26:29;100492.47;;;28.10;55.79
55675;BME280;41562;44.330;23.802;2023-07-09T08:28:57;100486.56;;;28.00;55.37
55675;BME280;41562;44.330;23.802;2023-07-09T08:31:25;100485.44;;;28.12;56.41
55675;BME280;41562;44.330;23.802;2023-07-09T08:33:52;100497.28;;;28.16;55.46
55675;BME280;41562;44.330;23.802;2023-07-09T08:36:19;100493.81;;;28.26;56.19
55675;BME280;41562;44.330;23.802;2023-07-09T08:38:47;100489.53;;;28.36;54.21
55675;BME280;41562;44.330;23.802;2023-07-09T08:41:41;100493.09;;;28.40;55.05
55675;BME280;41562;44.330;23.802;2023-07-09T08:47:06;100484.94;;;28.58;52.54
55675;BME280;41562;44.330;23.802;2023-07-09T08:49:41;100495.91;;;28.54;54.33
55675;BME280;41562;44.330;23.802;2023-07-09T08:52:17;100489.31;;;28.73;54.73
55675;BME280;41562;44.330;23.802;2023-07-09T08:54:50;100486.88;;;28.54;53.49
55675;BME280;41562;44.330;23.802;2023-07-09T08:57:22;100480.16;;;28.48;52.53
55675;BME280;41562;44.330;23.802;2023-07-09T09:00:52;100490.44;;;28.65;53.78
55675;BME280;41562;44.330;23.802;2023-07-09T09:03:05;100485.03;;;28.75;52.98
55675;BME280;41562;44.330;23.802;2023-07-09T09:05:42;100488.25;;;28.95;51.67
55675;BME280;41562;44.330;23.802;2023-07-09T09:11:12;100478.75;;;28.82;53.94
55675;BME280;41562;44.330;23.802;2023-07-09T09:13:42;100483.47;;;28.85;53.20
55675;BME280;41562;44.330;23.802;2023-07-09T09:16:38;100481.94;;;28.95;52.38
55675;BME280;41562;44.330;23.802;2023-07-09T09:19:18;100472.50;;;28.99;50.16
55675;BME280;41562;44.330;23.802;2023-07-09T09:22:02;100473.28;;;28.93;50.04
55675;BME280;41562;44.330;23.802;2023-07-09T09:24:40;100474.84;;;28.97;50.56
55675;BME280;41562;44.330;23.802;2023-07-09T09:27:13;100468.97;;;29.09;50.47
55675;BME280;41562;44.330;23.802;2023-07-09T09:29:41;100468.59;;;29.07;51.94
55675;BME280;41562;44.330;23.802;2023-07-09T09:32:39;100462.28;;;29.10;48.22
55675;BME280;41562;44.330;23.802;2023-07-09T09:35:14;100465.47;;;29.19;48.89
55675;BME280;41562;44.330;23.802;2023-07-09T09:37:54;100463.91;;;29.18;48.65
55675;BME280;41562;44.330;23.802;2023-07-09T09:40:23;100470.53;;;28.96;47.89
55675;BME280;41562;44.330;23.802;2023-07-09T09:42:54;100468.59;;;29.11;49.35
55675;BME280;41562;44.330;23.802;2023-07-09T09:45:24;100463.44;;;28.92;50.74
55675;BME280;41562;44.330;23.802;2023-07-09T09:47:59;100478.84;;;29.17;49.64
55675;BME280;41562;44.330;23.802;2023-07-09T09:50:31;100473.75;;;29.19;49.06
55675;BME280;41562;44.330;23.802;2023-07-09T09:52:59;100469.06;;;29.38;49.52
55675;BME280;41562;44.330;23.802;2023-07-09T09:55:31;100470.66;;;29.46;48.80
55675;BME280;41562;44.330;23.802;2023-07-09T09:58:13;100462.38;;;29.39;48.74
55675;BME280;41562;44.330;23.802;2023-07-09T10:00:50;100462.38;;;29.42;48.66
55675;BME280;41562;44.330;23.802;2023-07-09T10:03:19;100462.38;;;29.39;47.82
55675;BME280;41562;44.330;23.802;2023-07-09T10:05:58;100459.22;;;29.44;49.22
55675;BME280;41562;44.330;23.802;2023-07-09T10:14:01;100455.66;;;29.36;48.50
55675;BME280;41562;44.330;23.802;2023-07-09T10:16:38;100458.41;;;29.47;47.00
55675;BME280;41562;44.330;23.802;2023-07-09T10:19:25;100461.16;;;29.33;47.99
55675;BME280;41562;44.330;23.802;2023-07-09T10:22:01;100456.47;;;29.37;47.71
55675;BME280;41562;44.330;23.802;2023-07-09T10:41:01;100450.56;;;29.42;46.84
55675;BME280;41562;44.330;23.802;2023-07-09T10:44:16;100437.56;;;29.39;47.73
55675;BME280;41562;44.330;23.802;2023-07-09T10:46:57;100445.44;;;29.44;47.66
55675;BME280;41562;44.330;23.802;2023-07-09T10:49:35;100445.44;;;29.51;49.02
55675;BME280;41562;44.330;23.802;2023-07-09T10:54:59;100441.13;;;29.39;46.75
55675;BME280;41562;44.330;23.802;2023-07-09T10:57:33;100444.22;;;29.13;46.27
55675;BME280;41562;44.330;23.802;2023-07-09T11:00:03;100440.28;;;29.32;48.94
55675;BME280;41562;44.330;23.802;2023-07-09T11:02:41;100441.91;;;29.43;46.95
55675;BME280;41562;44.330;23.802;2023-07-09T11:05:18;100441.91;;;29.40;49.17
55675;BME280;41562;44.330;23.802;2023-07-09T11:08:02;100438.66;;;29.02;46.52
55675;BME280;41562;44.330;23.802;2023-07-09T11:10:40;100439.50;;;29.21;49.31
55675;BME280;41562;44.330;23.802;2023-07-09T11:13:24;100436.31;;;29.15;47.29
55675;BME280;41562;44.330;23.802;2023-07-09T11:16:41;100433.16;;;28.95;46.84
55675;BME280;41562;44.330;23.802;2023-07-09T11:19:18;100426.91;;;29.27;48.17
55675;BME280;41562;44.330;23.802;2023-07-09T11:22:13;100427.69;;;29.06;48.59
55675;BME280;41562;44.330;23.802;2023-07-09T11:24:53;100421.38;;;29.05;49.04
55675;BME280;41562;44.330;23.802;2023-07-09T11:27:32;100419.81;;;29.11;49.48
55675;BME280;41562;44.330;23.802;2023-07-09T11:30:25;100409.56;;;29.15;49.76
55675;BME280;41562;44.330;23.802;2023-07-09T11:33:14;100411.94;;;29.17;48.77
55675;BME280;41562;44.330;23.802;2023-07-09T11:36:13;100411.16;;;29.20;48.27
55675;BME280;41562;44.330;23.802;2023-07-09T11:38:46;100405.63;;;29.16;48.78
55675;BME280;41562;44.330;23.802;2023-07-09T11:44:17;100413.50;;;29.04;45.52
55675;BME280;41562;44.330;23.802;2023-07-09T11:47:12;100416.22;;;28.90;44.97
55675;BME280;41562;44.330;23.802;2023-07-09T11:50:00;100416.63;;;28.92;44.84
55675;BME280;41562;44.330;23.802;2023-07-09T11:52:43;100406.44;;;29.06;45.32
55675;BME280;41562;44.330;23.802;2023-07-09T11:55:25;100406.81;;;28.98;44.04
55675;BME280;41562;44.330;23.802;2023-07-09T11:57:55;100417.84;;;29.01;44.84
55675;BME280;41562;44.330;23.802;2023-07-09T12:00:23;100411.94;;;29.06;43.06
55675;BME280;41562;44.330;23.802;2023-07-09T12:02:50;100409.56;;;28.98;42.95
55675;BME280;41562;44.330;23.802;2023-07-09T12:05:26;100407.97;;;28.90;42.37
55675;BME280;41562;44.330;23.802;2023-07-09T12:07:55;100412.31;;;28.98;42.53
55675;BME280;41562;44.330;23.802;2023-07-09T12:10:34;100414.28;;;29.04;42.20
55675;BME280;41562;44.330;23.802;2023-07-09T12:13:04;100413.53;;;29.14;42.83
55675;BME280;41562;44.330;23.802;2023-07-09T12:15:32;100408.00;;;29.22;40.59
55675;BME280;41562;44.330;23.802;2023-07-09T12:18:02;100400.13;;;29.24;41.25
55675;BME280;41562;44.330;23.802;2023-07-09T12:20:34;100408.78;;;29.15;40.47
55675;BME280;41562;44.330;23.802;2023-07-09T12:23:22;100406.44;;;29.06;39.67
55675;BME280;41562;44.330;23.802;2023-07-09T12:25:53;100408.00;;;29.07;38.46
55675;BME280;41562;44.330;23.802;2023-07-09T12:28:22;100404.84;;;29.09;37.57
55675;BME280;41562;44.330;23.802;2023-07-09T12:30:55;100400.91;;;29.10;37.13
55675;BME280;41562;44.330;23.802;2023-07-09T12:33:24;100401.72;;;29.17;36.93
55675;BME280;41562;44.330;23.802;2023-07-09T12:35:56;100392.25;;;28.94;35.70
55675;BME280;41562;44.330;23.802;2023-07-09T12:38:27;100394.63;;;29.16;38.07
55675;BME280;41562;44.330;23.802;2023-07-09T12:41:00;100390.69;;;29.32;37.95
55675;BME280;41562;44.330;23.802;2023-07-09T12:43:30;100389.94;;;29.42;37.38
55675;BME280;41562;44.330;23.802;2023-07-09T12:45:59;100389.94;;;29.35;36.00
55675;BME280;41562;44.330;23.802;2023-07-09T12:48:28;100387.53;;;29.30;35.94
55675;BME280;41562;44.330;23.802;2023-07-09T12:50:58;100384.41;;;29.13;35.23
55675;BME280;41562;44.330;23.802;2023-07-09T12:53:28;100388.75;;;29.14;36.09
55675;BME280;41562;44.330;23.802;2023-07-09T12:55:58;100388.34;;;29.02;35.16
55675;BME280;41562;44.330;23.802;2023-07-09T12:58:32;100382.41;;;28.96;35.05
55675;BME280;41562;44.330;23.802;2023-07-09T13:01:12;100384.38;;;28.92;34.90
55675;BME280;41562;44.330;23.802;2023-07-09T13:03:56;100381.22;;;28.97;35.14
55675;BME280;41562;44.330;23.802;2023-07-09T13:06:30;100378.88;;;29.06;38.61
55675;BME280;41562;44.330;23.802;2023-07-09T13:09:00;100372.59;;;29.06;39.24
55675;BME280;41562;44.330;23.802;2023-07-09T13:11:34;100384.41;;;29.06;39.57
55675;BME280;41562;44.330;23.802;2023-07-09T13:14:29;100371.78;;;29.09;38.94
55675;BME280;41562;44.330;23.802;2023-07-09T13:17:05;100373.41;;;29.21;39.48
55675;BME280;41562;44.330;23.802;2023-07-09T13:19:33;100374.94;;;29.04;40.04
55675;BME280;41562;44.330;23.802;2023-07-09T13:22:04;100374.94;;;28.93;38.15
55675;BME280;41562;44.330;23.802;2023-07-09T13:24:38;100378.88;;;28.92;38.05
55675;BME280;41562;44.330;23.802;2023-07-09T13:27:08;100377.69;;;28.86;37.64
55675;BME280;41562;44.330;23.802;2023-07-09T13:29:42;100378.09;;;28.88;37.79
55675;BME280;41562;44.330;23.802;2023-07-09T13:32:12;100375.31;;;29.02;36.40
55675;BME280;41562;44.330;23.802;2023-07-09T13:34:40;100378.47;;;28.90;36.01
55675;BME280;41562;44.330;23.802;2023-07-09T13:37:11;100376.50;;;28.87;36.86
55675;BME280;41562;44.330;23.802;2023-07-09T13:39:40;100371.00;;;28.94;38.25
55675;BME280;41562;44.330;23.802;2023-07-09T13:42:13;100371.00;;;28.87;37.44
55675;BME280;41562;44.330;23.802;2023-07-09T13:44:46;100370.63;;;28.89;39.13
55675;BME280;41562;44.330;23.802;2023-07-09T13:47:18;100377.31;;;28.98;40.09
55675;BME280;41562;44.330;23.802;2023-07-09T13:49:46;100371.41;;;29.17;41.17